Time;durP1;ratioP1;P1;durP2;ratioP2;P2;SDS_P1;SDS_P2;PMS_P1;PMS_P2;Temp;Humidity;BMP_temperature;BMP_pressure;BME280_temperature;BME280_humidity;BME280_pressure;Samples;Min_cycle;Max_cycle;Signal;HPM_P1;HPM_P2
2021/03/27 00:01:51;;;;;;;;;;;19.00;51.50;;;;;;5002061;28;19917;-63
2021/03/27 00:04:19;;;;;;;;;;;19.00;51.40;;;;;;5019596;28;19917;-63
2021/03/27 00:06:53;;;;;;;;;;;19.00;51.50;;;;;;5006898;28;20439;-63
2021/03/27 00:09:31;;;;;;;;;;;19.00;51.40;;;;;;5012014;28;19921;-63
2021/03/27 00:12:02;;;;;;;;;;;19.00;51.40;;;;;;5015140;28;19944;-63
2021/03/27 00:14:44;;;;;;;;;;;19.00;51.40;;;;;;5001446;28;19921;-63
2021/03/27 00:17:14;;;;;;;;;;;19.00;51.50;;;;;;5004011;28;19935;-63
2021/03/27 00:19:51;;;;;;;;;;;19.00;51.40;;;;;;5011092;28;19917;-63
2021/03/27 00:22:28;;;;;;;;;;;19.00;51.40;;;;;;5010705;28;20428;-63
2021/03/27 00:24:54;;;;;;;;;;;19.00;51.40;;;;;;5010315;28;19914;-63
2021/03/27 00:27:22;;;;;;;;;;;19.00;51.40;;;;;;5011576;28;19914;-63
2021/03/27 00:29:49;;;;;;;;;;;19.00;51.50;;;;;;5013514;28;20268;-63
2021/03/27 00:32:25;;;;;;;;;;;19.00;51.40;;;;;;5010522;28;19921;-63
2021/03/27 00:34:52;;;;;;;;;;;19.00;51.40;;;;;;5010379;28;19928;-63
2021/03/27 00:37:19;;;;;;;;;;;19.00;51.40;;;;;;5011838;28;19921;-63
2021/03/27 00:39:44;;;;;;;;;;;19.00;51.50;;;;;;5009354;28;20319;-63
2021/03/27 00:42:11;;;;;;;;;;;19.00;51.40;;;;;;5011467;28;19914;-63
2021/03/27 00:44:41;;;;;;;;;;;19.00;51.50;;;;;;5016543;28;19913;-63
2021/03/27 00:47:07;;;;;;;;;;;19.00;51.40;;;;;;5006234;28;19914;-63
2021/03/27 00:49:34;;;;;;;;;;;19.00;51.40;;;;;;5018796;28;19923;-63
2021/03/27 00:52:10;;;;;;;;;;;19.00;51.40;;;;;;5015077;28;19919;-63
2021/03/27 00:54:42;;;;;;;;;;;19.00;51.40;;;;;;5015037;28;19918;-63
2021/03/27 00:57:10;;;;;;;;;;;19.00;51.40;;;;;;5015821;28;19916;-63
2021/03/27 00:59:37;;;;;;;;;;;19.00;51.40;;;;;;5019117;28;20375;-63
2021/03/27 01:02:03;;;;;;;;;;;19.00;51.40;;;;;;5017390;28;19963;-63
2021/03/27 01:04:30;;;;;;;;;;;19.00;51.40;;;;;;5014065;28;19920;-63
2021/03/27 01:06:57;;;;;;;;;;;19.00;51.40;;;;;;5013916;28;19921;-63
2021/03/27 01:09:30;;;;;;;;;;;19.00;51.40;;;;;;5016741;28;20017;-63
2021/03/27 01:12:07;;;;;;;;;;;19.00;51.40;;;;;;5017099;28;19913;-63
2021/03/27 01:14:40;;;;;;;;;;;18.90;51.40;;;;;;5007559;28;19997;-63
2021/03/27 01:17:06;;;;;;;;;;;19.00;51.40;;;;;;5013487;28;19922;-63
2021/03/27 01:19:32;;;;;;;;;;;19.00;51.40;;;;;;5017706;28;19919;-63
2021/03/27 01:21:58;;;;;;;;;;;19.00;51.40;;;;;;5016211;28;19921;-63
2021/03/27 01:24:24;;;;;;;;;;;19.00;51.40;;;;;;5012096;28;19963;-63
2021/03/27 01:26:54;;;;;;;;;;;19.00;51.40;;;;;;5011560;28;19920;-63
2021/03/27 01:29:38;;;;;;;;;;;19.00;51.50;;;;;;5014823;28;19921;-63
2021/03/27 01:32:13;;;;;;;;;;;19.00;51.40;;;;;;5015693;28;19940;-63
2021/03/27 01:34:38;;;;;;;;;;;18.90;51.40;;;;;;5013715;28;19921;-64
2021/03/27 01:37:15;;;;;;;;;;;19.00;51.40;;;;;;5015054;28;19913;-63
2021/03/27 01:39:41;;;;;;;;;;;18.90;51.40;;;;;;5010541;28;19980;-63
2021/03/27 01:42:17;;;;;;;;;;;19.00;51.40;;;;;;5015736;28;19921;-63
2021/03/27 01:44:54;;;;;;;;;;;19.00;51.40;;;;;;5013725;28;20375;-63
2021/03/27 01:47:36;;;;;;;;;;;18.90;51.30;;;;;;5014897;28;20369;-63
2021/03/27 01:50:02;;;;;;;;;;;18.90;51.30;;;;;;5017397;28;19917;-63
2021/03/27 01:52:54;;;;;;;;;;;18.90;51.30;;;;;;5019110;28;20133;-63
2021/03/27 01:55:24;;;;;;;;;;;18.90;51.30;;;;;;5015214;28;19920;-63
2021/03/27 01:57:59;;;;;;;;;;;19.00;51.30;;;;;;5015425;28;19913;-63
2021/03/27 02:00:34;;;;;;;;;;;19.00;51.30;;;;;;5018781;28;20404;-63
2021/03/27 02:03:12;;;;;;;;;;;18.90;51.30;;;;;;4997330;28;20618;-63
2021/03/27 02:05:39;;;;;;;;;;;18.90;51.30;;;;;;5015312;28;19917;-63
2021/03/27 02:08:18;;;;;;;;;;;18.90;51.30;;;;;;5013891;28;20311;-63
2021/03/27 02:10:46;;;;;;;;;;;18.90;51.30;;;;;;5012017;28;20027;-63
2021/03/27 02:13:15;;;;;;;;;;;18.90;52.00;;;;;;5018822;28;19945;-63
2021/03/27 02:15:46;;;;;;;;;;;18.90;51.30;;;;;;5013562;28;20388;-63
2021/03/27 02:18:18;;;;;;;;;;;18.90;51.40;;;;;;5018629;28;19913;-63
2021/03/27 02:20:44;;;;;;;;;;;18.90;51.30;;;;;;5010170;28;19913;-63
2021/03/27 02:23:28;;;;;;;;;;;18.90;51.30;;;;;;5014291;28;19921;-63
2021/03/27 02:26:12;;;;;;;;;;;18.90;51.30;;;;;;5016424;28;19917;-63
2021/03/27 02:28:37;;;;;;;;;;;18.90;51.30;;;;;;5006852;28;19925;-63
2021/03/27 02:31:06;;;;;;;;;;;18.90;51.30;;;;;;5013358;28;19941;-62
2021/03/27 02:33:36;;;;;;;;;;;18.90;51.30;;;;;;5012403;28;20535;-63
2021/03/27 02:36:21;;;;;;;;;;;18.90;51.30;;;;;;5012389;28;20292;-63
2021/03/27 02:38:54;;;;;;;;;;;18.90;51.30;;;;;;5016046;28;20487;-63
2021/03/27 02:41:33;;;;;;;;;;;18.90;51.30;;;;;;5013284;28;19913;-63
2021/03/27 02:44:11;;;;;;;;;;;18.90;51.30;;;;;;5014819;28;19914;-64
2021/03/27 02:46:42;;;;;;;;;;;18.90;51.30;;;;;;5015254;28;20463;-63
2021/03/27 02:49:26;;;;;;;;;;;18.90;51.30;;;;;;5014226;28;19923;-63
2021/03/27 02:52:03;;;;;;;;;;;18.90;51.30;;;;;;5012179;28;19979;-63
2021/03/27 02:54:35;;;;;;;;;;;18.90;51.30;;;;;;5014883;28;20027;-63
2021/03/27 02:57:20;;;;;;;;;;;18.90;51.20;;;;;;5005582;28;20308;-63
2021/03/27 02:59:52;;;;;;;;;;;18.90;51.20;;;;;;5014437;28;20027;-63
2021/03/27 03:02:29;;;;;;;;;;;18.90;51.20;;;;;;5008931;28;19920;-63
2021/03/27 03:05:00;;;;;;;;;;;18.90;51.80;;;;;;5004090;28;19914;-63
2021/03/27 03:07:28;;;;;;;;;;;18.90;51.20;;;;;;5006430;28;19917;-63
2021/03/27 03:10:00;;;;;;;;;;;18.90;51.20;;;;;;5014586;28;19917;-63
2021/03/27 03:12:29;;;;;;;;;;;18.90;51.20;;;;;;4995753;28;19918;-63
2021/03/27 03:14:56;;;;;;;;;;;18.90;51.20;;;;;;5010895;28;19914;-63
2021/03/27 03:17:21;;;;;;;;;;;18.90;51.20;;;;;;5011097;28;20384;-63
2021/03/27 03:20:04;;;;;;;;;;;18.90;51.20;;;;;;5012133;28;19920;-63
2021/03/27 03:22:32;;;;;;;;;;;18.90;51.20;;;;;;5002987;28;19996;-63
2021/03/27 03:24:58;;;;;;;;;;;18.90;51.20;;;;;;5012424;28;19959;-63
2021/03/27 03:27:24;;;;;;;;;;;18.90;51.10;;;;;;5014919;28;19917;-63
2021/03/27 03:29:51;;;;;;;;;;;18.90;51.20;;;;;;5010072;28;19971;-63
2021/03/27 03:32:20;;;;;;;;;;;18.90;51.20;;;;;;5013257;28;19918;-63
2021/03/27 03:34:55;;;;;;;;;;;18.90;51.20;;;;;;5015510;28;19917;-63
2021/03/27 03:37:20;;;;;;;;;;;18.90;51.10;;;;;;5012338;28;20651;-63
2021/03/27 03:39:49;;;;;;;;;;;18.90;51.10;;;;;;5014920;28;19916;-63
2021/03/27 03:42:23;;;;;;;;;;;18.90;51.10;;;;;;5015343;28;19917;-63
2021/03/27 03:44:56;;;;;;;;;;;18.90;51.10;;;;;;5005454;28;19960;-63
2021/03/27 03:47:40;;;;;;;;;;;18.90;51.10;;;;;;5015903;28;19913;-63
2021/03/27 03:50:05;;;;;;;;;;;18.90;51.10;;;;;;5019053;28;19925;-63
2021/03/27 03:52:36;;;;;;;;;;;18.90;51.00;;;;;;5015883;28;19920;-63
2021/03/27 03:55:10;;;;;;;;;;;18.90;51.00;;;;;;5014962;28;19917;-63
2021/03/27 03:57:42;;;;;;;;;;;18.90;51.00;;;;;;5004409;28;19917;-63
2021/03/27 04:00:14;;;;;;;;;;;18.90;51.10;;;;;;5012879;28;19917;-63
2021/03/27 04:03:03;;;;;;;;;;;18.90;51.00;;;;;;5009261;28;19918;-63
2021/03/27 04:05:31;;;;;;;;;;;18.90;51.00;;;;;;4985289;28;19921;-63
2021/03/27 04:08:03;;;;;;;;;;;18.90;51.00;;;;;;5010433;28;19913;-63
2021/03/27 04:10:29;;;;;;;;;;;18.90;51.00;;;;;;5004448;28;19921;-63
2021/03/27 04:12:58;;;;;;;;;;;18.90;51.00;;;;;;5010870;28;19935;-63
2021/03/27 04:15:42;;;;;;;;;;;18.80;50.90;;;;;;5013635;28;19948;-63
2021/03/27 04:18:11;;;;;;;;;;;18.80;50.90;;;;;;5012093;28;19963;-63
2021/03/27 04:20:56;;;;;;;;;;;18.80;50.90;;;;;;5013352;28;19921;-63
2021/03/27 04:23:24;;;;;;;;;;;18.80;50.90;;;;;;5012074;28;19913;-63
2021/03/27 04:26:01;;;;;;;;;;;18.80;50.90;;;;;;5016188;28;19914;-62
2021/03/27 04:28:47;;;;;;;;;;;18.80;50.90;;;;;;5018325;28;19913;-63
2021/03/27 04:31:18;;;;;;;;;;;18.80;50.80;;;;;;5008919;28;20005;-63
2021/03/27 04:33:51;;;;;;;;;;;18.80;50.80;;;;;;5015105;28;19913;-63
2021/03/27 04:36:26;;;;;;;;;;;18.80;50.80;;;;;;5014613;28;19943;-63
2021/03/27 04:38:54;;;;;;;;;;;18.80;50.80;;;;;;5014084;28;19917;-63
2021/03/27 04:41:27;;;;;;;;;;;18.90;50.90;;;;;;5023208;28;20265;-63
2021/03/27 04:43:55;;;;;;;;;;;18.80;50.80;;;;;;5012828;28;19913;-63
2021/03/27 04:46:30;;;;;;;;;;;18.80;50.90;;;;;;5015146;28;19914;-63
2021/03/27 04:49:14;;;;;;;;;;;18.80;50.90;;;;;;5013930;28;19975;-63
2021/03/27 04:51:45;;;;;;;;;;;18.80;50.90;;;;;;5009319;28;19917;-63
2021/03/27 04:54:12;;;;;;;;;;;18.80;50.80;;;;;;5014283;28;19917;-63
2021/03/27 04:56:52;;;;;;;;;;;18.80;50.90;;;;;;5000489;28;19917;-63
2021/03/27 04:59:29;;;;;;;;;;;18.80;50.90;;;;;;5013538;28;19962;-63
2021/03/27 05:01:56;;;;;;;;;;;18.80;50.80;;;;;;5014896;28;19925;-63
2021/03/27 05:04:23;;;;;;;;;;;18.80;50.80;;;;;;5013445;28;19917;-63
2021/03/27 05:07:15;;;;;;;;;;;18.80;50.80;;;;;;5011677;28;19949;-63
2021/03/27 05:09:41;;;;;;;;;;;18.80;50.80;;;;;;4983709;28;20299;-63
2021/03/27 05:12:06;;;;;;;;;;;18.80;50.80;;;;;;5015478;28;20360;-63
2021/03/27 05:14:37;;;;;;;;;;;18.80;50.80;;;;;;5014518;28;20012;-63
2021/03/27 05:17:05;;;;;;;;;;;18.80;50.70;;;;;;5021048;28;20453;-63
2021/03/27 05:19:35;;;;;;;;;;;18.80;50.80;;;;;;5014302;28;19945;-63
2021/03/27 05:22:10;;;;;;;;;;;18.80;50.80;;;;;;5019827;28;19920;-63
2021/03/27 05:24:35;;;;;;;;;;;18.80;50.70;;;;;;5005973;28;19928;-63
2021/03/27 05:27:03;;;;;;;;;;;18.80;50.80;;;;;;5014796;28;19921;-63
2021/03/27 05:29:36;;;;;;;;;;;18.80;50.80;;;;;;5017455;28;19921;-63
2021/03/27 05:32:13;;;;;;;;;;;18.80;50.70;;;;;;5016307;28;20755;-63
2021/03/27 05:34:40;;;;;;;;;;;18.80;50.80;;;;;;5018348;28;19971;-63
2021/03/27 05:37:24;;;;;;;;;;;18.80;50.80;;;;;;5015697;28;19913;-63
2021/03/27 05:40:02;;;;;;;;;;;18.80;50.80;;;;;;5021260;28;20300;-63
2021/03/27 05:42:38;;;;;;;;;;;18.80;51.40;;;;;;5005782;28;19967;-63
2021/03/27 05:45:18;;;;;;;;;;;18.80;50.80;;;;;;5014476;28;19913;-63
2021/03/27 05:48:02;;;;;;;;;;;18.80;50.80;;;;;;5008736;28;20364;-63
2021/03/27 05:50:37;;;;;;;;;;;18.80;50.80;;;;;;5012434;28;19917;-64
2021/03/27 05:53:08;;;;;;;;;;;18.80;50.80;;;;;;5001700;28;19960;-63
2021/03/27 05:55:52;;;;;;;;;;;18.80;50.80;;;;;;4987272;28;19921;-63
2021/03/27 05:58:30;;;;;;;;;;;18.80;50.70;;;;;;4991044;28;19913;-63
2021/03/27 06:00:57;;;;;;;;;;;18.80;50.80;;;;;;4984956;28;19917;-63
2021/03/27 06:03:31;;;;;;;;;;;18.80;50.70;;;;;;5002345;28;20455;-63
2021/03/27 06:05:57;;;;;;;;;;;18.80;50.70;;;;;;5005809;28;19968;-63
2021/03/27 06:08:25;;;;;;;;;;;18.80;50.70;;;;;;5005718;28;19914;-63
2021/03/27 06:11:11;;;;;;;;;;;18.80;50.70;;;;;;4999354;28;19953;-63
2021/03/27 06:13:48;;;;;;;;;;;18.80;50.70;;;;;;4976983;28;20454;-63
2021/03/27 06:16:20;;;;;;;;;;;18.80;50.70;;;;;;5001926;28;20151;-63
2021/03/27 06:18:45;;;;;;;;;;;18.80;50.70;;;;;;4999880;28;19968;-63
2021/03/27 06:21:20;;;;;;;;;;;18.80;50.70;;;;;;5001736;28;20384;-63
2021/03/27 06:24:02;;;;;;;;;;;18.80;50.70;;;;;;4992151;28;21475;-63
2021/03/27 06:26:46;;;;;;;;;;;18.80;50.60;;;;;;4992815;28;20735;-63
2021/03/27 06:29:30;;;;;;;;;;;18.80;50.60;;;;;;5013512;28;19957;-63
2021/03/27 06:32:01;;;;;;;;;;;18.70;50.60;;;;;;5016046;28;20002;-63
2021/03/27 06:34:47;;;;;;;;;;;18.80;50.70;;;;;;5013960;28;19937;-63
2021/03/27 06:37:31;;;;;;;;;;;18.70;50.60;;;;;;5011072;28;21316;-63
2021/03/27 06:40:15;;;;;;;;;;;18.80;50.60;;;;;;5012938;28;20027;-63
2021/03/27 06:42:59;;;;;;;;;;;18.80;50.60;;;;;;5018731;28;19928;-63
2021/03/27 06:45:37;;;;;;;;;;;18.70;50.50;;;;;;5013171;28;20383;-63
2021/03/27 06:48:15;;;;;;;;;;;18.70;50.50;;;;;;5010742;28;20297;-63
2021/03/27 06:50:59;;;;;;;;;;;18.70;50.50;;;;;;5013136;28;20316;-63
2021/03/27 06:53:30;;;;;;;;;;;18.70;50.50;;;;;;5015883;28;19920;-63
2021/03/27 06:55:59;;;;;;;;;;;18.70;50.50;;;;;;5018701;28;19917;-63
2021/03/27 06:58:30;;;;;;;;;;;18.70;50.50;;;;;;5019187;28;19913;-63
2021/03/27 07:01:05;;;;;;;;;;;18.70;50.50;;;;;;5012210;28;19969;-63
2021/03/27 07:03:49;;;;;;;;;;;18.70;50.50;;;;;;5014210;28;20368;-63
2021/03/27 07:06:35;;;;;;;;;;;18.70;50.50;;;;;;5015368;28;19913;-63
2021/03/27 07:09:03;;;;;;;;;;;18.70;50.50;;;;;;5002761;28;19917;-63
2021/03/27 07:11:34;;;;;;;;;;;18.70;50.60;;;;;;5011538;28;19925;-63
2021/03/27 07:14:08;;;;;;;;;;;18.70;50.60;;;;;;5011102;28;20295;-63
2021/03/27 07:16:41;;;;;;;;;;;18.70;50.50;;;;;;5003296;28;19963;-62
2021/03/27 07:19:15;;;;;;;;;;;18.70;50.50;;;;;;5011264;28;19917;-64
2021/03/27 07:21:40;;;;;;;;;;;18.70;50.50;;;;;;5014305;28;19987;-63
2021/03/27 07:24:09;;;;;;;;;;;18.70;50.60;;;;;;5018146;28;19917;-62
2021/03/27 07:26:46;;;;;;;;;;;18.70;50.60;;;;;;5019495;28;19949;-62
2021/03/27 07:29:33;;;;;;;;;;;18.70;50.80;;;;;;5006405;28;19924;-62
2021/03/27 07:32:13;;;;;;;;;;;18.70;51.20;;;;;;5011716;28;19951;-62
2021/03/27 07:34:41;;;;;;;;;;;18.70;51.30;;;;;;5015509;28;19913;-62
2021/03/27 07:37:18;;;;;;;;;;;18.70;51.20;;;;;;5013584;28;19971;-62
2021/03/27 07:39:51;;;;;;;;;;;18.70;51.20;;;;;;5007892;28;19920;-62
2021/03/27 07:42:16;;;;;;;;;;;18.60;51.10;;;;;;4992229;28;19918;-62
2021/03/27 07:44:45;;;;;;;;;;;18.70;51.10;;;;;;4999500;28;19924;-62
2021/03/27 07:47:28;;;;;;;;;;;18.70;51.00;;;;;;4996230;28;19914;-63
2021/03/27 07:49:53;;;;;;;;;;;18.70;50.90;;;;;;4985567;28;20503;-63
2021/03/27 07:52:27;;;;;;;;;;;18.70;50.90;;;;;;4994184;28;19945;-62
2021/03/27 07:55:00;;;;;;;;;;;18.70;50.90;;;;;;4999999;28;20359;-61
2021/03/27 07:57:48;;;;;;;;;;;18.70;51.00;;;;;;4992340;28;20036;-62
2021/03/27 08:00:17;;;;;;;;;;;18.70;51.20;;;;;;5013989;28;21782;-63
2021/03/27 08:03:01;;;;;;;;;;;18.70;51.60;;;;;;4999474;28;19961;-62
2021/03/27 08:05:45;;;;;;;;;;;18.70;51.80;;;;;;5016414;28;19963;-60
2021/03/27 08:08:31;;;;;;;;;;;18.70;52.10;;;;;;5016289;28;19945;-60
2021/03/27 08:11:03;;;;;;;;;;;18.60;52.10;;;;;;5019160;28;19917;-63
2021/03/27 08:13:47;;;;;;;;;;;18.60;52.20;;;;;;5014839;28;20375;-62
2021/03/27 08:16:31;;;;;;;;;;;18.60;52.30;;;;;;5016552;28;20296;-62
2021/03/27 08:19:13;;;;;;;;;;;18.60;52.30;;;;;;4986188;28;19914;-61
2021/03/27 08:22:11;;;;;;;;;;;18.60;52.00;;;;;;4997638;28;19913;-61
2021/03/27 08:24:39;;;;;;;;;;;18.70;52.00;;;;;;4964771;28;19914;-60
2021/03/27 08:27:23;;;;;;;;;;;18.60;51.90;;;;;;4996479;28;19913;-62
2021/03/27 08:29:58;;;;;;;;;;;18.70;51.90;;;;;;5015407;28;19917;-62
2021/03/27 08:32:26;;;;;;;;;;;18.60;51.80;;;;;;5010532;28;19917;-60
2021/03/27 08:34:55;;;;;;;;;;;18.60;51.70;;;;;;5015645;28;19913;-60
2021/03/27 08:37:41;;;;;;;;;;;18.60;51.70;;;;;;5020512;28;19913;-61
2021/03/27 08:40:27;;;;;;;;;;;18.60;51.60;;;;;;5017540;28;19918;-62
2021/03/27 08:42:58;;;;;;;;;;;18.60;51.60;;;;;;5008193;28;19945;-61
2021/03/27 08:45:42;;;;;;;;;;;18.70;51.60;;;;;;5016803;28;19936;-62
2021/03/27 08:48:15;;;;;;;;;;;18.60;51.50;;;;;;5016676;28;19913;-62
2021/03/27 08:50:49;;;;;;;;;;;18.60;51.50;;;;;;5013588;28;20424;-61
2021/03/27 08:53:17;;;;;;;;;;;18.70;51.50;;;;;;5016287;28;19921;-61
2021/03/27 08:55:49;;;;;;;;;;;18.60;51.40;;;;;;5018538;28;20414;-61
2021/03/27 08:58:25;;;;;;;;;;;18.70;51.50;;;;;;5017222;28;19970;-62
2021/03/27 09:01:09;;;;;;;;;;;18.70;51.50;;;;;;5014235;28;21171;-62
2021/03/27 09:03:53;;;;;;;;;;;18.70;52.30;;;;;;5017604;28;20596;-62
2021/03/27 09:06:25;;;;;;;;;;;18.70;52.60;;;;;;5010058;28;20399;-61
2021/03/27 09:08:53;;;;;;;;;;;18.70;52.60;;;;;;5021205;28;19913;-61
2021/03/27 09:11:36;;;;;;;;;;;18.70;52.70;;;;;;5016086;28;19920;-62
2021/03/27 09:14:11;;;;;;;;;;;18.70;52.60;;;;;;5014721;28;20430;-62
2021/03/27 09:16:41;;;;;;;;;;;18.70;53.00;;;;;;5014296;28;19948;-62
2021/03/27 09:19:12;;;;;;;;;;;18.70;53.20;;;;;;5015589;28;19996;-60
2021/03/27 09:21:39;;;;;;;;;;;18.70;53.00;;;;;;5009325;28;19949;-61
2021/03/27 09:24:11;;;;;;;;;;;18.70;52.80;;;;;;5008957;28;19913;-62
2021/03/27 09:26:39;;;;;;;;;;;18.70;52.80;;;;;;5005376;28;20384;-61
2021/03/27 09:29:23;;;;;;;;;;;18.70;52.80;;;;;;5014490;28;19987;-62
2021/03/27 09:32:02;;;;;;;;;;;18.70;52.80;;;;;;5006399;28;19960;-62
2021/03/27 09:34:31;;;;;;;;;;;18.70;52.90;;;;;;4998860;28;19947;-62
2021/03/27 09:37:05;;;;;;;;;;;18.70;52.90;;;;;;5011715;28;19948;-62
2021/03/27 09:39:36;;;;;;;;;;;18.70;52.80;;;;;;5013753;28;19987;-62
2021/03/27 09:42:11;;;;;;;;;;;18.70;52.60;;;;;;5015564;28;19913;-62
2021/03/27 09:44:39;;;;;;;;;;;18.70;52.70;;;;;;4992326;28;19914;-62
2021/03/27 09:47:18;;;;;;;;;;;18.70;52.70;;;;;;5012448;28;19976;-62
2021/03/27 09:50:03;;;;;;;;;;;18.70;52.60;;;;;;5010960;28;19921;-62
2021/03/27 09:52:47;;;;;;;;;;;18.70;52.60;;;;;;5012493;28;19913;-62
2021/03/27 09:55:25;;;;;;;;;;;18.60;52.60;;;;;;5011878;28;19968;-62
2021/03/27 09:57:55;;;;;;;;;;;18.60;52.50;;;;;;5008096;28;20525;-62
2021/03/27 10:00:24;;;;;;;;;;;18.60;52.40;;;;;;5010928;28;19956;-62
2021/03/27 10:03:01;;;;;;;;;;;18.60;52.50;;;;;;5011792;28;19967;-63
2021/03/27 10:05:32;;;;;;;;;;;18.60;52.50;;;;;;5013792;28;20339;-62
2021/03/27 10:08:10;;;;;;;;;;;18.60;52.50;;;;;;5018635;28;19971;-62
2021/03/27 10:10:36;;;;;;;;;;;18.60;52.50;;;;;;5012296;28;19953;-62
2021/03/27 10:13:03;;;;;;;;;;;18.60;52.50;;;;;;5014825;28;20340;-62
2021/03/27 10:15:34;;;;;;;;;;;18.60;52.40;;;;;;5012084;28;20343;-62
2021/03/27 10:18:11;;;;;;;;;;;18.70;52.50;;;;;;5011363;28;20264;-62
2021/03/27 10:20:44;;;;;;;;;;;18.60;52.40;;;;;;5007149;28;20371;-62
2021/03/27 10:23:33;;;;;;;;;;;18.70;52.40;;;;;;5016067;28;19913;-62
2021/03/27 10:25:58;;;;;;;;;;;18.60;52.40;;;;;;5008929;28;20643;-62
2021/03/27 10:28:28;;;;;;;;;;;18.60;52.30;;;;;;5012673;28;19995;-62
2021/03/27 10:31:02;;;;;;;;;;;18.60;52.30;;;;;;5017787;28;20675;-62
2021/03/27 10:33:38;;;;;;;;;;;18.60;52.30;;;;;;5013506;28;19954;-62
2021/03/27 10:36:04;;;;;;;;;;;18.60;52.30;;;;;;5012230;28;19913;-62
2021/03/27 10:38:35;;;;;;;;;;;18.60;52.30;;;;;;5011577;28;19913;-62
2021/03/27 10:41:05;;;;;;;;;;;18.60;52.20;;;;;;5010191;28;20419;-62
2021/03/27 10:43:31;;;;;;;;;;;18.70;52.20;;;;;;5010608;28;19932;-62
2021/03/27 10:46:01;;;;;;;;;;;18.60;52.20;;;;;;5011742;28;19914;-62
2021/03/27 10:48:45;;;;;;;;;;;18.60;52.20;;;;;;5009559;28;20095;-62
2021/03/27 10:51:10;;;;;;;;;;;18.60;52.20;;;;;;4998680;28;19917;-62
2021/03/27 10:53:46;;;;;;;;;;;18.60;52.20;;;;;;5007918;28;19943;-62
2021/03/27 10:56:11;;;;;;;;;;;18.60;52.10;;;;;;5011412;28;19913;-62
2021/03/27 10:58:55;;;;;;;;;;;18.70;52.10;;;;;;5014857;28;19920;-62
2021/03/27 11:01:26;;;;;;;;;;;18.60;52.10;;;;;;4998555;28;19924;-62
2021/03/27 11:04:12;;;;;;;;;;;18.60;52.10;;;;;;5015320;28;20307;-62
2021/03/27 11:06:56;;;;;;;;;;;18.70;52.10;;;;;;5003271;28;19913;-62
2021/03/27 11:09:28;;;;;;;;;;;18.60;52.00;;;;;;5012989;28;19927;-62
2021/03/27 11:11:53;;;;;;;;;;;18.60;52.10;;;;;;5015117;28;19940;-62
2021/03/27 11:14:33;;;;;;;;;;;18.60;52.00;;;;;;5008333;28;19913;-62
2021/03/27 11:17:37;;;;;;;;;;;18.70;52.10;;;;;;5000876;28;19925;-62
2021/03/27 11:20:21;;;;;;;;;;;18.60;52.00;;;;;;4933017;28;19914;-62
2021/03/27 11:22:54;;;;;;;;;;;18.70;52.00;;;;;;4918346;29;19918;-61
2021/03/27 11:25:38;;;;;;;;;;;18.60;51.90;;;;;;4960358;28;21826;-61
2021/03/27 11:28:07;;;;;;;;;;;18.70;51.90;;;;;;4997734;28;19917;-62
2021/03/27 11:30:44;;;;;;;;;;;18.70;51.80;;;;;;4997717;28;19963;-62
2021/03/27 11:33:29;;;;;;;;;;;18.70;51.80;;;;;;5000081;28;19971;-62
2021/03/27 11:36:01;;;;;;;;;;;18.70;51.70;;;;;;5014724;28;19913;-62
2021/03/27 11:38:40;;;;;;;;;;;18.70;51.60;;;;;;5010853;28;19924;-62
2021/03/27 11:41:09;;;;;;;;;;;18.70;51.60;;;;;;5010817;28;19953;-62
2021/03/27 11:43:52;;;;;;;;;;;18.70;51.60;;;;;;5010712;28;19928;-62
2021/03/27 11:46:50;;;;;;;;;;;18.60;51.60;;;;;;5011181;28;19920;-62
2021/03/27 11:49:41;;;;;;;;;;;18.70;51.60;;;;;;4989572;28;19917;-62
2021/03/27 11:52:19;;;;;;;;;;;18.60;51.50;;;;;;5000303;28;19913;-61
2021/03/27 11:55:05;;;;;;;;;;;18.70;51.60;;;;;;5013225;28;19928;-61
2021/03/27 11:57:46;;;;;;;;;;;18.70;51.60;;;;;;5007206;28;19913;-61
2021/03/27 12:00:50;;;;;;;;;;;18.70;51.60;;;;;;5012270;28;19975;-62
2021/03/27 12:03:20;;;;;;;;;;;18.60;51.50;;;;;;5013904;28;19916;-61
2021/03/27 12:05:53;;;;;;;;;;;18.60;51.50;;;;;;5013511;28;19949;-62
2021/03/27 12:08:27;;;;;;;;;;;18.60;51.50;;;;;;5011360;28;19940;-62
2021/03/27 12:10:53;;;;;;;;;;;18.70;51.50;;;;;;5011822;28;19924;-62
2021/03/27 12:13:21;;;;;;;;;;;18.60;51.40;;;;;;5012419;28;20347;-62
2021/03/27 12:15:53;;;;;;;;;;;18.70;51.40;;;;;;5001242;28;20027;-61
2021/03/27 12:18:46;;;;;;;;;;;18.70;51.50;;;;;;4996842;28;19924;-61
2021/03/27 12:21:13;;;;;;;;;;;18.70;51.30;;;;;;5008761;28;20488;-63
2021/03/27 12:23:40;;;;;;;;;;;18.70;51.30;;;;;;5012908;28;20371;-62
2021/03/27 12:26:24;;;;;;;;;;;18.70;51.20;;;;;;5011767;28;19917;-62
2021/03/27 12:28:56;;;;;;;;;;;18.70;51.20;;;;;;5005605;28;19917;-62
2021/03/27 12:31:40;;;;;;;;;;;18.70;51.10;;;;;;5010776;28;20420;-62
2021/03/27 12:34:18;;;;;;;;;;;18.70;51.10;;;;;;5002524;28;20380;-62
2021/03/27 12:36:50;;;;;;;;;;;18.70;51.10;;;;;;5009773;28;19920;-62
2021/03/27 12:39:19;;;;;;;;;;;18.70;51.10;;;;;;5010950;28;20276;-62
2021/03/27 12:41:53;;;;;;;;;;;18.70;51.10;;;;;;5015054;28;19980;-62
2021/03/27 12:44:32;;;;;;;;;;;18.70;51.10;;;;;;5003334;28;20285;-61
2021/03/27 12:47:01;;;;;;;;;;;18.70;51.10;;;;;;5009860;28;19920;-62
2021/03/27 12:49:26;;;;;;;;;;;18.70;51.00;;;;;;5015991;28;19944;-62
2021/03/27 12:52:05;;;;;;;;;;;18.60;50.90;;;;;;5015073;28;20399;-62
2021/03/27 12:54:49;;;;;;;;;;;18.70;50.90;;;;;;5008888;28;20312;-61
2021/03/27 12:57:17;;;;;;;;;;;18.70;50.90;;;;;;5015688;28;19913;-62
2021/03/27 13:00:02;;;;;;;;;;;18.70;51.00;;;;;;5012956;28;20430;-61
2021/03/27 13:02:50;;;;;;;;;;;18.70;50.90;;;;;;5008821;28;19948;-61
2021/03/27 13:05:17;;;;;;;;;;;18.60;50.80;;;;;;5018927;28;19921;-61
2021/03/27 13:07:47;;;;;;;;;;;18.60;50.90;;;;;;5013006;28;20001;-62
2021/03/27 13:10:31;;;;;;;;;;;18.60;51.50;;;;;;5015629;28;20743;-62
2021/03/27 13:13:03;;;;;;;;;;;18.60;50.80;;;;;;5017649;28;19928;-61
2021/03/27 13:15:47;;;;;;;;;;;18.70;50.90;;;;;;5007131;28;19917;-61
2021/03/27 13:18:23;;;;;;;;;;;18.70;50.90;;;;;;5017227;28;19995;-61
2021/03/27 13:20:55;;;;;;;;;;;18.60;50.80;;;;;;5001648;28;19914;-62
2021/03/27 13:23:25;;;;;;;;;;;18.60;50.80;;;;;;5013810;28;19921;-62
2021/03/27 13:25:50;;;;;;;;;;;18.60;50.80;;;;;;5015536;28;20372;-62
2021/03/27 13:28:35;;;;;;;;;;;18.60;50.80;;;;;;5015788;28;19967;-62
2021/03/27 13:31:04;;;;;;;;;;;18.60;50.80;;;;;;5013572;28;20007;-62
2021/03/27 13:33:33;;;;;;;;;;;18.60;50.80;;;;;;5012113;28;20024;-62
2021/03/27 13:36:00;;;;;;;;;;;18.60;50.80;;;;;;5019074;28;19921;-61
2021/03/27 13:38:43;;;;;;;;;;;18.60;50.80;;;;;;5007584;28;19932;-61
2021/03/27 13:41:10;;;;;;;;;;;18.60;50.80;;;;;;5012622;28;20403;-62
2021/03/27 13:43:38;;;;;;;;;;;18.60;50.80;;;;;;5012149;28;19986;-62
2021/03/27 13:46:05;;;;;;;;;;;18.60;50.80;;;;;;5012400;28;19944;-61
2021/03/27 13:48:43;;;;;;;;;;;18.60;50.80;;;;;;5013777;28;19925;-62
2021/03/27 13:51:11;;;;;;;;;;;18.60;50.90;;;;;;5014483;28;19992;-62
2021/03/27 13:53:44;;;;;;;;;;;18.60;50.80;;;;;;5013217;28;19925;-62
2021/03/27 13:56:12;;;;;;;;;;;18.60;50.80;;;;;;5010993;28;20063;-61
2021/03/27 13:59:07;;;;;;;;;;;18.60;50.80;;;;;;5005230;28;19913;-62
2021/03/27 14:01:39;;;;;;;;;;;18.60;50.80;;;;;;4977229;28;20838;-62
2021/03/27 14:04:08;;;;;;;;;;;18.60;50.70;;;;;;5015202;28;19924;-62
2021/03/27 14:06:35;;;;;;;;;;;18.60;50.70;;;;;;5004262;28;20335;-62
2021/03/27 14:09:00;;;;;;;;;;;18.60;50.70;;;;;;5011685;28;20435;-61
2021/03/27 14:11:26;;;;;;;;;;;18.60;50.70;;;;;;5014344;28;19996;-61
2021/03/27 14:13:58;;;;;;;;;;;18.50;50.70;;;;;;5011700;28;19919;-62
2021/03/27 14:16:42;;;;;;;;;;;18.60;50.80;;;;;;5014331;28;19920;-62
2021/03/27 14:19:20;;;;;;;;;;;18.50;50.70;;;;;;5015393;28;19984;-62
2021/03/27 14:21:45;;;;;;;;;;;18.60;50.70;;;;;;5009772;28;19917;-61
2021/03/27 14:24:21;;;;;;;;;;;18.50;50.70;;;;;;5014927;28;19970;-62
2021/03/27 14:26:58;;;;;;;;;;;18.50;50.70;;;;;;5014693;28;20300;-62
2021/03/27 14:29:46;;;;;;;;;;;18.50;50.70;;;;;;5012568;28;19917;-62
2021/03/27 14:32:26;;;;;;;;;;;18.60;50.80;;;;;;5011963;28;20008;-62
2021/03/27 14:34:51;;;;;;;;;;;18.50;50.70;;;;;;5016030;28;20360;-63
2021/03/27 14:37:20;;;;;;;;;;;18.50;50.70;;;;;;5011069;28;20004;-62
2021/03/27 14:39:55;;;;;;;;;;;18.60;50.70;;;;;;5011127;28;19913;-61
2021/03/27 14:42:25;;;;;;;;;;;18.50;50.70;;;;;;5013454;28;19939;-62
2021/03/27 14:44:51;;;;;;;;;;;18.50;50.70;;;;;;5023452;28;19909;-62
2021/03/27 14:47:16;;;;;;;;;;;18.50;50.70;;;;;;5024358;28;19999;-62
2021/03/27 14:49:48;;;;;;;;;;;18.50;50.70;;;;;;5023870;28;20430;-62
2021/03/27 14:52:18;;;;;;;;;;;18.50;50.70;;;;;;5024371;28;19916;-63
2021/03/27 14:54:50;;;;;;;;;;;18.50;50.70;;;;;;5023197;28;19913;-62
2021/03/27 14:57:21;;;;;;;;;;;18.50;50.60;;;;;;5024221;28;19913;-63